createdAt,value
2023-11-20T00:00:19.249Z,7.03
2023-11-20T00:02:48.520Z,7.85
2023-11-20T00:05:16.416Z,7.25
2023-11-20T00:07:44.222Z,7.38
2023-11-20T00:10:12.209Z,7.03
2023-11-20T00:12:39.970Z,7.50
2023-11-20T00:15:09.577Z,6.95
2023-11-20T00:17:38.261Z,7.28
2023-11-20T00:20:08.633Z,6.57
2023-11-20T00:22:36.371Z,6.88
2023-11-20T00:25:04.463Z,7.40
2023-11-20T00:27:32.385Z,7.25
2023-11-20T00:30:00.178Z,7.47
2023-11-20T00:32:28.892Z,7.25
2023-11-20T00:34:56.656Z,7.28
2023-11-20T00:37:25.835Z,6.90
2023-11-20T00:39:53.735Z,6.82
2023-11-20T00:42:21.492Z,6.80
2023-11-20T00:44:49.272Z,6.57
2023-11-20T00:47:17.816Z,7.55
2023-11-20T00:49:45.870Z,7.47
2023-11-20T00:52:13.969Z,6.32
2023-11-20T00:54:43.097Z,7.78
2023-11-20T00:57:11.133Z,7.00
2023-11-20T00:59:38.904Z,6.90
2023-11-20T01:02:08.048Z,6.72
2023-11-20T01:04:36.391Z,7.00
2023-11-20T01:07:04.938Z,6.55
2023-11-20T01:09:32.692Z,6.90
2023-11-20T01:12:01.791Z,6.78
2023-11-20T01:14:29.551Z,7.07
2023-11-20T01:16:58.411Z,7.00
2023-11-20T01:19:26.248Z,7.00
2023-11-20T01:21:54.166Z,6.65
2023-11-20T01:24:21.957Z,6.80
2023-11-20T01:26:50.349Z,6.47
2023-11-20T01:29:19.472Z,7.10
2023-11-20T01:31:47.270Z,6.28
2023-11-20T01:34:15.086Z,6.65
2023-11-20T01:36:42.869Z,7.43
2023-11-20T01:39:11.028Z,7.00
2023-11-20T01:41:38.921Z,6.38
2023-11-20T01:44:07.428Z,6.43
2023-11-20T01:46:37.970Z,7.10
2023-11-20T01:49:06.808Z,6.88
2023-11-20T01:51:35.839Z,7.05
2023-11-20T01:54:05.692Z,6.68
2023-11-20T01:56:34.819Z,6.45
2023-11-20T01:59:07.027Z,6.75
2023-11-20T02:01:36.476Z,6.65
2023-11-20T02:04:05.970Z,6.55
2023-11-20T02:06:34.336Z,6.47
2023-11-20T02:09:02.381Z,6.38
2023-11-20T02:11:30.936Z,6.82
2023-11-20T02:13:58.788Z,6.35
2023-11-20T02:16:26.734Z,6.88
2023-11-20T02:18:55.894Z,6.53
2023-11-20T02:21:23.682Z,6.60
2023-11-20T02:23:51.694Z,6.65
2023-11-20T02:26:41.450Z,6.70
2023-11-20T02:29:22.635Z,6.13
2023-11-20T02:31:51.863Z,6.75
2023-11-20T02:34:21.236Z,6.82
2023-11-20T02:36:49.861Z,6.40
2023-11-20T02:39:17.761Z,7.35
2023-11-20T02:41:46.361Z,6.13
2023-11-20T02:44:14.375Z,6.60
2023-11-20T02:46:44.375Z,7.07
2023-11-20T02:49:14.648Z,6.80
2023-11-20T02:51:43.601Z,6.38
2023-11-20T02:54:14.551Z,6.43
2023-11-20T02:56:42.814Z,7.25
2023-11-20T02:59:10.726Z,6.57
2023-11-20T03:01:38.617Z,6.72
2023-11-20T03:04:07.193Z,6.90
2023-11-20T03:06:36.464Z,6.72
2023-11-20T03:09:04.891Z,6.03
2023-11-20T03:11:33.266Z,6.45
2023-11-20T03:14:01.707Z,7.20
2023-11-20T03:16:29.792Z,5.93
2023-11-20T03:18:59.094Z,6.50
2023-11-20T03:21:27.390Z,6.65
2023-11-20T03:23:56.825Z,6.68
2023-11-20T03:26:24.865Z,6.55
2023-11-20T03:28:52.953Z,6.78
2023-11-20T03:31:21.319Z,6.53
2023-11-20T03:33:49.572Z,6.85
2023-11-20T03:36:17.681Z,6.65
2023-11-20T03:38:45.698Z,6.40
2023-11-20T03:41:15.170Z,6.30
2023-11-20T03:43:43.047Z,6.20
2023-11-20T03:46:12.833Z,6.22
2023-11-20T03:48:40.790Z,5.95
2023-11-20T03:51:08.888Z,5.97
2023-11-20T03:53:36.918Z,6.10
2023-11-20T03:56:05.119Z,6.50
2023-11-20T03:58:34.426Z,6.43
2023-11-20T04:01:03.760Z,6.38
2023-11-20T04:03:32.076Z,6.43
2023-11-20T04:05:59.918Z,6.30
2023-11-20T04:08:27.797Z,6.38
2023-11-20T04:10:55.676Z,6.20
2023-11-20T04:13:23.619Z,6.28
2023-11-20T04:15:52.883Z,5.95
2023-11-20T04:18:21.280Z,6.57
2023-11-20T04:20:52.282Z,6.60
2023-11-20T04:23:20.598Z,6.53
2023-11-20T04:25:48.499Z,6.15
2023-11-20T04:28:16.493Z,5.97
2023-11-20T04:30:44.609Z,6.13
2023-11-20T04:33:13.896Z,6.05
2023-11-20T04:35:43.324Z,6.22
2023-11-20T04:38:11.348Z,5.93
2023-11-20T04:40:39.299Z,6.45
2023-11-20T04:43:07.134Z,5.88
2023-11-20T04:45:35.001Z,6.72
2023-11-20T04:48:04.929Z,6.50
2023-11-20T04:50:34.507Z,6.88
2023-11-20T04:53:02.486Z,6.45
2023-11-20T04:55:30.589Z,6.18
2023-11-20T04:57:59.437Z,6.13
2023-11-20T05:00:29.680Z,5.75
2023-11-20T05:02:57.816Z,6.10
2023-11-20T05:05:25.862Z,5.70
2023-11-20T05:07:55.750Z,6.18
2023-11-20T05:10:23.722Z,6.13
2023-11-20T05:12:52.267Z,6.53
2023-11-20T05:15:20.234Z,6.07
2023-11-20T05:17:48.769Z,6.43
2023-11-20T05:20:17.387Z,6.47
2023-11-20T05:22:47.636Z,6.20
2023-11-20T05:25:17.369Z,6.15
2023-11-20T05:27:45.729Z,6.25
2023-11-20T05:30:15.068Z,6.35
2023-11-20T05:32:42.986Z,6.05
2023-11-20T05:35:11.001Z,6.63
2023-11-20T05:37:38.995Z,6.40
2023-11-20T05:40:08.002Z,6.20
2023-11-20T05:42:37.432Z,6.25
2023-11-20T05:45:06.723Z,6.68
2023-11-20T05:47:34.814Z,6.70
2023-11-20T05:50:04.424Z,6.07
2023-11-20T05:52:33.725Z,6.32
2023-11-20T05:55:03.599Z,6.28
2023-11-20T05:57:32.127Z,6.22
2023-11-20T06:00:01.360Z,5.70
2023-11-20T06:02:29.343Z,5.72
2023-11-20T06:04:57.141Z,6.47
2023-11-20T06:07:25.233Z,6.55
2023-11-20T06:09:53.035Z,6.22
2023-11-20T06:12:21.044Z,6.38
2023-11-20T06:14:49.007Z,6.53
2023-11-20T06:17:18.923Z,5.82
2023-11-20T06:19:46.851Z,5.00
2023-11-20T06:22:15.249Z,5.68
2023-11-20T06:24:44.032Z,5.78
2023-11-20T06:27:12.015Z,6.07
2023-11-20T06:29:42.476Z,6.60
2023-11-20T06:32:11.538Z,8.57
2023-11-20T06:34:40.780Z,9.60
2023-11-20T06:37:08.983Z,7.82
2023-11-20T06:39:37.701Z,9.13
2023-11-20T06:42:06.197Z,8.77
2023-11-20T06:44:34.117Z,8.10
2023-11-20T06:47:02.150Z,7.70
2023-11-20T06:49:30.209Z,6.82
2023-11-20T06:51:59.431Z,8.50
2023-11-20T06:54:27.314Z,8.63
2023-11-20T06:56:55.758Z,8.13
2023-11-20T06:59:24.075Z,9.77
2023-11-20T07:01:51.974Z,10.48
2023-11-20T07:04:20.231Z,11.75
2023-11-20T07:06:48.670Z,11.27
2023-11-20T07:09:19.632Z,11.00
2023-11-20T07:11:47.937Z,10.70
2023-11-20T07:14:16.130Z,11.85
2023-11-20T07:16:44.146Z,12.05
2023-11-20T07:19:12.052Z,13.45
2023-11-20T07:21:40.988Z,13.75
2023-11-20T07:24:09.320Z,12.93
2023-11-20T07:26:39.676Z,11.85
2023-11-20T07:29:07.688Z,11.75
2023-11-20T07:31:37.986Z,11.65
2023-11-20T07:34:08.152Z,10.80
2023-11-20T07:36:36.091Z,9.75
2023-11-20T07:39:04.994Z,10.30
2023-11-20T07:41:32.972Z,11.27
2023-11-20T07:44:02.297Z,10.73
2023-11-20T07:46:30.698Z,10.73
2023-11-20T07:48:59.428Z,10.30
2023-11-20T07:51:29.233Z,10.23
2023-11-20T07:53:57.212Z,10.68
2023-11-20T07:56:25.164Z,9.45
2023-11-20T07:58:53.600Z,10.43
2023-11-20T08:01:24.254Z,10.32
2023-11-20T08:03:55.097Z,10.05
2023-11-20T08:06:24.081Z,10.18
2023-11-20T08:08:51.959Z,10.18
2023-11-20T08:11:19.773Z,10.65
2023-11-20T08:13:47.726Z,10.63
2023-11-20T08:16:15.787Z,10.20
2023-11-20T08:18:45.025Z,10.93
2023-11-20T08:21:12.906Z,11.30
2023-11-20T08:23:40.812Z,12.30
2023-11-20T08:26:08.723Z,10.63
2023-11-20T08:28:36.708Z,11.52
2023-11-20T08:31:07.296Z,11.43
2023-11-20T08:33:36.279Z,11.38
2023-11-20T08:36:06.837Z,10.88
2023-11-20T08:38:34.835Z,10.93
2023-11-20T08:41:03.616Z,10.98
2023-11-20T08:43:33.875Z,10.15
2023-11-20T08:46:09.155Z,10.10
2023-11-20T08:48:43.020Z,9.10
2023-11-20T08:51:12.416Z,9.30
2023-11-20T08:53:40.430Z,10.07
2023-11-20T08:56:11.281Z,9.80
2023-11-20T08:58:39.254Z,9.35
2023-11-20T09:01:07.321Z,8.43
2023-11-20T09:03:35.313Z,9.00
2023-11-20T09:06:05.381Z,8.95
2023-11-20T09:08:34.711Z,8.23
2023-11-20T09:11:03.497Z,8.50
2023-11-20T09:13:31.478Z,8.88
2023-11-20T09:16:00.145Z,8.02
2023-11-20T09:18:28.998Z,8.43
2023-11-20T09:21:00.175Z,8.77
2023-11-20T09:23:29.071Z,8.25
2023-11-20T09:25:58.946Z,8.15
2023-11-20T09:28:27.113Z,8.45
2023-11-20T09:30:55.809Z,8.25
2023-11-20T09:33:23.803Z,7.10
2023-11-20T09:35:51.773Z,6.15
2023-11-20T09:38:19.704Z,6.63
2023-11-20T09:40:47.853Z,11.45
2023-11-20T09:43:19.802Z,5.68
2023-11-20T09:45:53.373Z,9.13
2023-11-20T09:48:27.501Z,15.77
2023-11-20T09:51:07.253Z,10.15
2023-11-20T09:53:41.461Z,6.65
2023-11-20T09:56:12.335Z,6.20
2023-11-20T09:58:43.005Z,6.07
2023-11-20T10:01:15.308Z,6.18
2023-11-20T10:03:45.307Z,4.90
2023-11-20T10:06:16.487Z,5.15
2023-11-20T10:08:45.554Z,4.40
2023-11-20T10:11:17.390Z,4.18
2023-11-20T10:13:46.943Z,3.92
2023-11-20T10:16:19.413Z,3.67
2023-11-20T10:18:47.744Z,4.07
2023-11-20T10:21:15.835Z,3.90
2023-11-20T10:23:43.958Z,3.50
2023-11-20T10:26:12.303Z,3.40
2023-11-20T10:28:40.837Z,3.40
2023-11-20T10:31:10.586Z,3.10
2023-11-20T10:33:39.354Z,3.10
2023-11-20T10:36:15.159Z,3.45
2023-11-20T10:38:44.383Z,3.20
2023-11-20T10:41:13.139Z,3.28
2023-11-20T10:43:42.965Z,3.30
2023-11-20T10:46:12.686Z,3.45
2023-11-20T10:48:41.309Z,3.30
2023-11-20T10:51:10.914Z,3.15
2023-11-20T10:53:43.850Z,3.97
2023-11-20T10:56:13.931Z,3.13
2023-11-20T10:58:42.758Z,3.78
2023-11-20T11:01:12.282Z,8.18
2023-11-20T11:03:42.386Z,10.00
2023-11-20T11:06:13.049Z,4.70
2023-11-20T11:08:45.504Z,8.45
2023-11-20T11:11:15.868Z,9.40
2023-11-20T11:13:46.089Z,11.95
2023-11-20T11:16:26.271Z,11.25
2023-11-20T11:19:07.896Z,9.80
2023-11-20T11:21:45.673Z,9.13
2023-11-20T11:24:16.064Z,9.73
2023-11-20T11:26:53.667Z,13.48
2023-11-20T11:29:26.888Z,8.13
2023-11-20T11:32:21.759Z,6.93
2023-11-20T11:35:08.572Z,7.20
2023-11-20T11:37:47.273Z,6.10
2023-11-20T11:40:22.566Z,6.32
2023-11-20T11:42:57.621Z,8.23
2023-11-20T11:45:32.184Z,7.20
2023-11-20T11:48:02.894Z,5.82
2023-11-20T11:50:30.852Z,5.78
2023-11-20T11:52:59.885Z,5.72
2023-11-20T11:55:28.247Z,5.70
2023-11-20T11:58:04.134Z,4.40
2023-11-20T12:00:33.557Z,4.10
2023-11-20T12:03:10.193Z,3.92
2023-11-20T12:06:19.383Z,4.05
2023-11-20T12:08:49.680Z,4.05
2023-11-20T12:11:50.379Z,3.60
2023-11-20T12:14:18.353Z,3.67
2023-11-20T12:16:47.071Z,3.83
2023-11-20T12:19:17.866Z,3.97
2023-11-20T12:21:46.264Z,3.60
2023-11-20T12:24:14.697Z,3.67
2023-11-20T12:26:44.258Z,3.83
2023-11-20T12:29:12.811Z,3.80
2023-11-20T12:31:40.873Z,3.42
2023-11-20T12:34:09.437Z,3.92
2023-11-20T12:36:39.913Z,3.65
2023-11-20T12:39:09.888Z,3.67
2023-11-20T12:41:37.906Z,3.75
2023-11-20T12:44:06.224Z,3.80
2023-11-20T12:46:34.207Z,3.58
2023-11-20T12:49:03.476Z,3.50
2023-11-20T12:51:31.527Z,3.88
2023-11-20T12:54:02.288Z,4.00
2023-11-20T12:56:30.703Z,3.90
2023-11-20T12:58:59.052Z,3.78
2023-11-20T13:01:27.401Z,4.60
2023-11-20T13:03:55.802Z,4.68
2023-11-20T13:06:23.894Z,5.18
2023-11-20T13:08:51.799Z,4.50
2023-11-20T13:11:23.721Z,3.45
2023-11-20T13:13:52.570Z,4.28
2023-11-20T13:16:41.004Z,4.65
2023-11-20T13:19:09.246Z,4.35
2023-11-20T13:21:37.390Z,4.38
2023-11-20T13:24:07.333Z,3.92
2023-11-20T13:26:44.322Z,4.18
2023-11-20T13:29:12.548Z,5.22
2023-11-20T13:31:43.338Z,4.28
2023-11-20T13:34:11.441Z,4.53
2023-11-20T13:36:39.936Z,4.53
2023-11-20T13:39:11.612Z,4.63
2023-11-20T13:41:42.303Z,5.03
2023-11-20T13:44:10.654Z,4.57
2023-11-20T13:46:43.233Z,3.95
2023-11-20T13:49:12.132Z,5.05
2023-11-20T13:51:40.574Z,5.22
2023-11-20T13:54:10.819Z,4.82
2023-11-20T13:56:39.461Z,6.00
2023-11-20T13:59:10.583Z,5.28
2023-11-20T14:01:40.245Z,5.65
2023-11-20T14:04:11.014Z,5.28
2023-11-20T14:06:39.973Z,7.15
2023-11-20T14:09:08.087Z,5.55
2023-11-20T14:11:36.204Z,6.50
2023-11-20T14:14:04.489Z,6.13
2023-11-20T14:16:33.945Z,6.32
2023-11-20T14:19:02.049Z,6.53
2023-11-20T14:21:30.153Z,6.95
2023-11-20T14:23:58.031Z,7.00
2023-11-20T14:26:32.225Z,6.63
2023-11-20T14:29:02.870Z,6.72
2023-11-20T14:31:32.136Z,6.93
2023-11-20T14:34:01.626Z,6.18
2023-11-20T14:36:29.483Z,6.70
2023-11-20T14:38:59.592Z,6.78
2023-11-20T14:41:28.016Z,5.53
2023-11-20T14:43:55.912Z,5.63
2023-11-20T14:46:24.139Z,6.20
2023-11-20T14:48:52.162Z,5.55
2023-11-20T14:51:22.141Z,5.82
2023-11-20T14:53:52.495Z,5.95
2023-11-20T14:56:20.897Z,5.57
2023-11-20T14:58:48.809Z,5.85
2023-11-20T15:01:18.280Z,5.90
2023-11-20T15:03:46.446Z,5.95
2023-11-20T15:06:15.328Z,5.78
2023-11-20T15:08:44.987Z,5.47
2023-11-20T15:11:12.968Z,6.03
2023-11-20T15:13:41.289Z,6.43
2023-11-20T15:16:09.518Z,6.50
2023-11-20T15:18:37.996Z,6.80
2023-11-20T15:21:07.058Z,7.50
2023-11-20T15:23:42.539Z,7.45
2023-11-20T15:26:14.000Z,8.25
2023-11-20T15:28:41.986Z,8.20
2023-11-20T15:31:09.933Z,8.50
2023-11-20T15:33:43.540Z,8.13
2023-11-20T15:36:11.963Z,8.10
2023-11-20T15:38:39.840Z,8.32
2023-11-20T15:41:09.073Z,9.40
2023-11-20T15:43:38.519Z,8.90
2023-11-20T15:46:14.250Z,8.25
2023-11-20T15:48:42.376Z,11.60
2023-11-20T15:51:10.512Z,10.27
2023-11-20T15:53:38.506Z,7.25
2023-11-20T15:56:10.822Z,9.10
2023-11-20T15:58:41.444Z,10.15
2023-11-20T16:01:10.151Z,14.38
2023-11-20T16:03:38.787Z,16.85
2023-11-20T16:06:10.332Z,9.10
2023-11-20T16:08:41.416Z,7.82
2023-11-20T16:11:21.775Z,8.20
2023-11-20T16:13:51.774Z,8.15
2023-11-20T16:16:21.188Z,8.23
2023-11-20T16:18:55.052Z,7.20
2023-11-20T16:21:25.689Z,7.03
2023-11-20T16:23:59.758Z,6.65
2023-11-20T16:26:28.197Z,6.45
2023-11-20T16:29:13.988Z,6.57
2023-11-20T16:31:58.552Z,6.55
2023-11-20T16:34:34.838Z,6.75
2023-11-20T16:37:06.727Z,8.15
2023-11-20T16:39:34.663Z,7.93
2023-11-20T16:42:02.943Z,7.43
2023-11-20T16:44:32.524Z,7.32
2023-11-20T16:47:00.556Z,7.32
2023-11-20T16:49:29.113Z,7.72
2023-11-20T16:51:58.306Z,6.70
2023-11-20T16:54:27.191Z,7.25
2023-11-20T16:56:58.133Z,7.07
2023-11-20T16:59:27.311Z,6.82
2023-11-20T17:01:57.012Z,6.05
2023-11-20T17:04:25.638Z,7.40
2023-11-20T17:07:04.364Z,6.80
2023-11-20T17:09:32.521Z,7.47
2023-11-20T17:12:05.551Z,6.43
2023-11-20T17:14:34.433Z,8.93
2023-11-20T17:17:03.909Z,9.05
2023-11-20T17:19:31.915Z,7.43
2023-11-20T17:22:00.309Z,7.45
2023-11-20T17:24:30.634Z,7.78
2023-11-20T17:26:58.521Z,8.20
2023-11-20T17:29:26.631Z,7.65
2023-11-20T17:31:55.080Z,7.60
2023-11-20T17:34:24.683Z,7.32
2023-11-20T17:36:52.602Z,6.93
2023-11-20T17:39:23.884Z,8.05
2023-11-20T17:41:53.057Z,7.28
2023-11-20T17:44:20.881Z,7.30
2023-11-20T17:46:48.937Z,7.45
2023-11-20T17:49:16.872Z,6.93
2023-11-20T17:51:48.537Z,7.43
2023-11-20T17:54:16.528Z,6.97
2023-11-20T17:56:48.107Z,7.00
2023-11-20T17:59:18.373Z,7.15
2023-11-20T18:01:46.520Z,7.18
2023-11-20T18:04:14.946Z,6.93
2023-11-20T18:06:43.013Z,6.65
2023-11-20T18:09:14.291Z,7.13
2023-11-20T18:11:42.337Z,6.35
2023-11-20T18:14:10.475Z,6.95
2023-11-20T18:16:39.011Z,7.03
2023-11-20T18:19:07.543Z,8.55
2023-11-20T18:21:43.441Z,8.35
2023-11-20T18:24:18.024Z,9.35
2023-11-20T18:26:46.339Z,9.20
2023-11-20T18:29:16.245Z,8.90
2023-11-20T18:31:45.352Z,7.22
2023-11-20T18:34:13.581Z,7.50
2023-11-20T18:36:41.488Z,8.75
2023-11-20T18:39:09.679Z,9.00
2023-11-20T18:41:43.457Z,8.30
2023-11-20T18:44:14.260Z,8.45
2023-11-20T18:46:42.282Z,8.45
2023-11-20T18:49:10.746Z,8.65
2023-11-20T18:51:38.893Z,8.32
2023-11-20T18:54:08.081Z,7.70
2023-11-20T18:56:36.113Z,7.20
2023-11-20T18:59:05.463Z,7.70
2023-11-20T19:01:33.676Z,7.82
2023-11-20T19:04:03.635Z,8.30
2023-11-20T19:06:31.728Z,9.50
2023-11-20T19:08:59.996Z,10.63
2023-11-20T19:11:28.169Z,10.48
2023-11-20T19:13:56.178Z,11.50
2023-11-20T19:16:25.784Z,11.10
2023-11-20T19:18:54.042Z,10.18
2023-11-20T19:21:22.162Z,10.55
2023-11-20T19:23:50.115Z,9.02
2023-11-20T19:26:18.212Z,9.77
2023-11-20T19:28:46.205Z,8.55
2023-11-20T19:31:14.262Z,8.88
2023-11-20T19:33:45.857Z,8.98
2023-11-20T19:36:13.759Z,8.85
2023-11-20T19:38:42.214Z,8.77
2023-11-20T19:41:10.277Z,8.18
2023-11-20T19:43:38.361Z,8.35
2023-11-20T19:46:07.381Z,8.73
2023-11-20T19:48:35.464Z,7.90
2023-11-20T19:51:05.972Z,8.50
2023-11-20T19:53:35.071Z,9.27
2023-11-20T19:56:04.182Z,9.05
2023-11-20T19:58:32.124Z,9.65
2023-11-20T20:01:00.329Z,10.05
2023-11-20T20:03:29.177Z,10.27
2023-11-20T20:05:57.046Z,9.82
2023-11-20T20:08:26.512Z,10.70
2023-11-20T20:10:54.525Z,12.85
2023-11-20T20:13:25.396Z,11.88
2023-11-20T20:15:53.523Z,11.23
2023-11-20T20:18:21.693Z,11.88
2023-11-20T20:20:49.815Z,13.45
2023-11-20T20:23:20.605Z,11.98
2023-11-20T20:25:50.031Z,13.60
2023-11-20T20:28:18.107Z,13.20
2023-11-20T20:30:46.478Z,12.27
2023-11-20T20:33:14.817Z,13.50
2023-11-20T20:35:42.917Z,12.85
2023-11-20T20:38:11.282Z,10.05
2023-11-20T20:40:39.473Z,8.73
2023-11-20T20:43:08.890Z,8.48
2023-11-20T20:45:38.019Z,8.45
2023-11-20T20:48:06.837Z,8.93
2023-11-20T20:50:34.959Z,8.98
2023-11-20T20:53:03.597Z,8.48
2023-11-20T20:55:31.797Z,8.73
2023-11-20T20:58:00.422Z,8.10
2023-11-20T21:00:32.553Z,7.90
2023-11-20T21:03:00.549Z,7.68
2023-11-20T21:05:30.652Z,8.45
2023-11-20T21:07:58.868Z,12.10
2023-11-20T21:10:27.191Z,9.48
2023-11-20T21:12:55.206Z,8.02
2023-11-20T21:15:25.090Z,8.93
2023-11-20T21:17:54.524Z,7.53
2023-11-20T21:20:22.507Z,7.10
2023-11-20T21:22:50.705Z,6.93
2023-11-20T21:25:21.285Z,7.35
2023-11-20T21:27:49.430Z,7.30
2023-11-20T21:30:18.242Z,7.70
2023-11-20T21:32:46.161Z,7.35
2023-11-20T21:35:15.609Z,8.00
2023-11-20T21:37:43.788Z,7.88
2023-11-20T21:40:12.783Z,7.53
2023-11-20T21:42:41.043Z,7.72
2023-11-20T21:45:09.637Z,6.68
2023-11-20T21:47:38.499Z,7.18
2023-11-20T21:50:09.449Z,7.07
2023-11-20T21:52:39.961Z,6.28
2023-11-20T21:55:09.457Z,6.78
2023-11-20T21:57:38.269Z,7.22
2023-11-20T22:00:08.123Z,7.05
2023-11-20T22:02:36.211Z,7.03
2023-11-20T22:05:06.070Z,7.13
2023-11-20T22:07:34.161Z,9.50
2023-11-20T22:10:03.546Z,8.27
2023-11-20T22:12:31.541Z,8.80
2023-11-20T22:15:00.215Z,7.72
2023-11-20T22:17:28.986Z,8.02
2023-11-20T22:19:57.303Z,7.80
2023-11-20T22:22:25.376Z,6.35
2023-11-20T22:24:53.532Z,6.47
2023-11-20T22:27:22.843Z,5.90
2023-11-20T22:29:51.019Z,6.20
2023-11-20T22:32:19.392Z,5.00
2023-11-20T22:34:55.135Z,5.70
2023-11-20T22:37:30.723Z,5.25
2023-11-20T22:39:58.661Z,5.13
2023-11-20T22:42:28.743Z,5.10
2023-11-20T22:44:57.788Z,4.63
2023-11-20T22:47:25.665Z,4.57
2023-11-20T22:49:54.221Z,5.05
2023-11-20T22:52:23.721Z,4.93
2023-11-20T22:54:51.595Z,5.38
2023-11-20T22:57:19.738Z,4.53
2023-11-20T22:59:49.752Z,4.70
2023-11-20T23:02:18.016Z,4.30
2023-11-20T23:04:46.160Z,5.40
2023-11-20T23:07:14.121Z,5.35
2023-11-20T23:09:42.086Z,5.20
2023-11-20T23:12:10.014Z,5.22
2023-11-20T23:14:37.837Z,5.05
2023-11-20T23:17:07.285Z,5.43
2023-11-20T23:19:35.613Z,4.75
2023-11-20T23:22:03.865Z,4.88
2023-11-20T23:24:31.744Z,4.75
2023-11-20T23:26:59.695Z,4.50
2023-11-20T23:29:27.676Z,4.68
2023-11-20T23:31:55.681Z,5.30
2023-11-20T23:34:25.918Z,5.40
2023-11-20T23:36:53.810Z,4.78
2023-11-20T23:39:22.299Z,4.40
2023-11-20T23:41:50.924Z,4.80
2023-11-20T23:44:19.055Z,4.88
2023-11-20T23:46:48.228Z,5.20
2023-11-20T23:49:16.193Z,5.05
2023-11-20T23:51:45.753Z,5.20
2023-11-20T23:54:13.646Z,4.55
2023-11-20T23:56:41.532Z,4.93
2023-11-20T23:59:10.723Z,5.22
